DLH407 EETN-ENBO
Flight info
| Callsign | DLH407 |
|---|---|
| Flight time | N/A |
| Altitude | 38000 |
| Route | PETOT DCT UMUGI DCT IPDUR DCT ROGTU DCT BODRI DCT EDAXA M607 LENSO DCT MOTIG N3 TIXOR DCT NEBUR DCT EMDAM |
| Aircraft | B38M/M-SDE1FGHILORVWXY/HB1 |
Departure
| Time | 2026-04-29 17:45 |
|---|---|
| Airport | Lennart Meri Tallinn Airport (EETN) |
Arrival
| Time | N/A |
|---|---|
| Airport | Bodø Airport (ENBO) |
| Time | Latitude | Longitude | Altitude | Speed | Heading |
|---|---|---|---|---|---|
| 2026-04-29 17:34 | 59.41585 | 24.80283 | 144 ft | 0 kts | 0° |
| 2026-04-29 17:38 | 59.41584 | 24.80283 | 144 ft | 1 kts | 0° |
| 2026-04-29 17:38 | 59.41570 | 24.80282 | 144 ft | 3 kts | 8° |
| 2026-04-29 17:39 | 59.41558 | 24.80274 | 144 ft | 3 kts | 30° |
| 2026-04-29 17:39 | 59.41545 | 24.80246 | 144 ft | 3 kts | 63° |
| 2026-04-29 17:39 | 59.41540 | 24.80208 | 144 ft | 0 kts | 91° |
| 2026-04-29 17:40 | 59.41540 | 24.80209 | 144 ft | 0 kts | 91° |
| 2026-04-29 17:40 | 59.41538 | 24.80250 | 144 ft | 7 kts | 97° |
| 2026-04-29 17:41 | 59.41527 | 24.80403 | 144 ft | 16 kts | 99° |
| 2026-04-29 17:41 | 59.41510 | 24.80598 | 144 ft | 17 kts | 94° |
| 2026-04-29 17:41 | 59.41507 | 24.80874 | 144 ft | 23 kts | 90° |
| 2026-04-29 17:41 | 59.41507 | 24.81193 | 144 ft | 26 kts | 90° |
| 2026-04-29 17:42 | 59.41506 | 24.81580 | 144 ft | 31 kts | 90° |
| 2026-04-29 17:42 | 59.41505 | 24.82009 | 144 ft | 26 kts | 90° |
| 2026-04-29 17:42 | 59.41504 | 24.82394 | 144 ft | 31 kts | 90° |
| 2026-04-29 17:42 | 59.41503 | 24.82834 | 144 ft | 28 kts | 90° |
| 2026-04-29 17:43 | 59.41502 | 24.83248 | 144 ft | 33 kts | 90° |
| 2026-04-29 17:43 | 59.41501 | 24.83686 | 144 ft | 34 kts | 90° |
| 2026-04-29 17:43 | 59.41500 | 24.84177 | 144 ft | 37 kts | 90° |
| 2026-04-29 17:43 | 59.41498 | 24.84665 | 144 ft | 31 kts | 90° |
| 2026-04-29 17:44 | 59.41484 | 24.84978 | 144 ft | 13 kts | 134° |
| 2026-04-29 17:44 | 59.41392 | 24.85016 | 144 ft | 15 kts | 180° |
| 2026-04-29 17:44 | 59.41325 | 24.84951 | 144 ft | 7 kts | 245° |
| 2026-04-29 17:44 | 59.41323 | 24.84928 | 144 ft | 0 kts | 269° |
| 2026-04-29 17:45 | 59.41323 | 24.84825 | 144 ft | 34 kts | 269° |
| 2026-04-29 17:45 | 59.41321 | 24.83562 | 145 ft | 148 kts | 270° |
| 2026-04-29 17:45 | 59.41320 | 24.81120 | 806 ft | 192 kts | 269° |
| 2026-04-29 17:46 | 59.41398 | 24.78643 | 2619 ft | 185 kts | 277° |
| 2026-04-29 17:46 | 59.41582 | 24.75994 | 3755 ft | 210 kts | 278° |
| 2026-04-29 17:46 | 59.41788 | 24.72973 | 4838 ft | 234 kts | 277° |
| 2026-04-29 17:46 | 59.42009 | 24.69652 | 5961 ft | 256 kts | 277° |
| 2026-04-29 17:47 | 59.42242 | 24.66093 | 7235 ft | 269 kts | 277° |
| 2026-04-29 17:47 | 59.42478 | 24.62445 | 8601 ft | 276 kts | 277° |
| 2026-04-29 17:47 | 59.42720 | 24.58671 | 9962 ft | 282 kts | 277° |
| 2026-04-29 17:47 | 59.42970 | 24.54749 | 11068 ft | 298 kts | 277° |
| 2026-04-29 17:48 | 59.43234 | 24.50579 | 12013 ft | 316 kts | 277° |
| 2026-04-29 17:48 | 59.43511 | 24.46179 | 12984 ft | 330 kts | 277° |
| 2026-04-29 17:48 | 59.43793 | 24.41675 | 14124 ft | 336 kts | 277° |
| 2026-04-29 17:48 | 59.44079 | 24.37079 | 15228 ft | 341 kts | 277° |
| 2026-04-29 17:49 | 59.44368 | 24.32401 | 16282 ft | 347 kts | 277° |
| 2026-04-29 17:49 | 59.44660 | 24.27655 | 17291 ft | 353 kts | 277° |
| 2026-04-29 17:49 | 59.44954 | 24.22840 | 18253 ft | 358 kts | 277° |
| 2026-04-29 17:49 | 59.45252 | 24.17948 | 19173 ft | 363 kts | 277° |
| 2026-04-29 17:50 | 59.45551 | 24.12984 | 20054 ft | 368 kts | 277° |
| 2026-04-29 17:50 | 59.45853 | 24.07957 | 20904 ft | 373 kts | 277° |
| 2026-04-29 17:50 | 59.46156 | 24.02861 | 21726 ft | 378 kts | 276° |
| 2026-04-29 17:50 | 59.46461 | 23.97703 | 22522 ft | 382 kts | 276° |
| 2026-04-29 17:51 | 59.46768 | 23.92476 | 23288 ft | 387 kts | 276° |